createdAt,value
2023-01-17T00:01:17.949Z,13.02
2023-01-17T00:04:02.946Z,6.00
2023-01-17T00:06:48.155Z,9.10
2023-01-17T00:09:34.535Z,12.93
2023-01-17T00:12:05.511Z,9.13
2023-01-17T00:14:32.188Z,7.70
2023-01-17T00:17:01.242Z,7.95
2023-01-17T00:19:46.704Z,11.55
2023-01-17T00:22:46.723Z,14.15
2023-01-17T00:25:43.715Z,7.68
2023-01-17T00:28:10.342Z,10.10
2023-01-17T00:30:36.918Z,11.43
2023-01-17T00:33:03.591Z,12.85
2023-01-17T00:35:32.270Z,6.47
2023-01-17T00:38:05.908Z,7.40
2023-01-17T00:40:33.730Z,10.70
2023-01-17T00:43:19.010Z,7.93
2023-01-17T00:46:06.256Z,26.38
2023-01-17T00:48:52.159Z,6.90
2023-01-17T00:51:38.553Z,8.07
2023-01-17T00:54:24.148Z,8.73
2023-01-17T00:57:12.261Z,11.75
2023-01-17T00:59:58.014Z,10.55
2023-01-17T01:02:44.453Z,6.72
2023-01-17T01:05:31.337Z,8.23
2023-01-17T01:08:16.609Z,10.18
2023-01-17T01:11:03.639Z,8.27
2023-01-17T01:13:50.491Z,14.60
2023-01-17T01:16:37.289Z,10.70
2023-01-17T01:19:25.392Z,10.95
2023-01-17T01:22:10.419Z,13.23
2023-01-17T01:24:55.550Z,12.02
2023-01-17T01:27:40.783Z,7.70
2023-01-17T01:30:26.493Z,7.18
2023-01-17T01:33:11.282Z,10.43
2023-01-17T01:35:37.921Z,10.80
2023-01-17T01:38:04.531Z,13.20
2023-01-17T01:40:31.178Z,8.02
2023-01-17T01:43:00.053Z,8.00
2023-01-17T01:45:29.784Z,8.60
2023-01-17T01:48:00.402Z,9.15
2023-01-17T01:50:29.163Z,9.70
2023-01-17T01:53:00.814Z,12.07
2023-01-17T01:55:33.199Z,7.10
2023-01-17T01:58:04.562Z,6.88
2023-01-17T02:00:36.710Z,13.30
2023-01-17T02:03:08.090Z,6.18
2023-01-17T02:05:35.578Z,8.23
2023-01-17T02:08:10.694Z,8.25
2023-01-17T02:10:39.672Z,9.48
2023-01-17T02:13:07.716Z,14.20
2023-01-17T02:16:00.704Z,11.18
2023-01-17T02:18:27.319Z,19.15
2023-01-17T02:21:12.708Z,11.82
2023-01-17T02:23:48.209Z,11.95
2023-01-17T02:26:21.191Z,13.68
2023-01-17T02:28:50.492Z,9.40
2023-01-17T02:31:50.551Z,9.27
2023-01-17T02:34:28.563Z,8.75
2023-01-17T02:37:34.731Z,10.90
2023-01-17T02:40:16.800Z,8.85
2023-01-17T02:42:50.362Z,10.98
2023-01-17T02:45:20.953Z,10.05
2023-01-17T02:47:47.540Z,8.95
2023-01-17T02:50:31.561Z,9.80
2023-01-17T02:53:34.481Z,5.78
2023-01-17T02:56:19.669Z,10.50
2023-01-17T02:59:01.293Z,5.10
2023-01-17T03:01:41.604Z,16.38
2023-01-17T03:04:30.287Z,10.07
2023-01-17T03:07:13.803Z,10.52
2023-01-17T03:09:43.587Z,10.70
2023-01-17T03:12:10.431Z,9.65
2023-01-17T03:14:37.799Z,10.93
2023-01-17T03:17:04.691Z,10.15
2023-01-17T03:19:31.471Z,14.00
2023-01-17T03:21:58.830Z,8.90
2023-01-17T03:24:25.398Z,6.30
2023-01-17T03:26:52.848Z,9.02
2023-01-17T03:29:19.870Z,13.23
2023-01-17T03:31:46.800Z,13.63
2023-01-17T03:34:13.631Z,5.72
2023-01-17T03:36:40.281Z,12.13
2023-01-17T03:39:06.886Z,10.73
2023-01-17T03:41:33.946Z,12.02
2023-01-17T03:44:01.023Z,8.20
2023-01-17T03:46:28.759Z,9.07
2023-01-17T03:48:55.380Z,12.48
2023-01-17T03:51:22.775Z,9.52
2023-01-17T03:53:50.125Z,10.75
2023-01-17T03:56:16.961Z,12.93
2023-01-17T03:58:43.992Z,9.80
2023-01-17T04:01:10.979Z,13.55
2023-01-17T04:03:37.704Z,8.93
2023-01-17T04:06:05.188Z,11.98
2023-01-17T04:08:31.840Z,8.40
2023-01-17T04:10:58.494Z,10.40
2023-01-17T04:13:25.124Z,8.48
2023-01-17T04:15:51.930Z,11.18
2023-01-17T04:18:20.659Z,11.45
2023-01-17T04:20:47.612Z,16.90
2023-01-17T04:23:14.229Z,9.85
2023-01-17T04:25:41.645Z,11.88
2023-01-17T04:28:09.014Z,8.57
2023-01-17T20:04:57.293Z,17.33
2023-01-17T20:07:23.843Z,21.92
2023-01-17T20:09:50.489Z,20.15
2023-01-17T20:12:17.096Z,20.60
2023-01-17T20:14:43.728Z,19.52
2023-01-17T20:17:10.691Z,18.08
2023-01-17T20:19:37.276Z,18.80
2023-01-17T20:22:05.408Z,19.88
2023-01-17T20:24:33.228Z,22.83
2023-01-17T20:27:03.177Z,18.45
2023-01-17T20:29:29.829Z,20.15
2023-01-17T20:31:56.603Z,23.17
2023-01-17T20:34:26.500Z,20.85
2023-01-17T20:36:55.626Z,21.80
2023-01-17T20:39:22.661Z,18.20
2023-01-17T20:41:51.519Z,19.42
2023-01-17T20:44:19.598Z,24.10
2023-01-17T20:46:47.845Z,21.58
2023-01-17T20:49:17.356Z,23.70
2023-01-17T20:51:45.241Z,23.60
2023-01-17T20:54:15.099Z,22.42
2023-01-17T20:56:42.797Z,20.90
2023-01-17T20:59:12.822Z,21.15
2023-01-17T21:01:39.591Z,18.95
2023-01-17T21:04:10.181Z,22.98
2023-01-17T21:06:39.753Z,26.48
2023-01-17T21:09:07.421Z,21.88
2023-01-17T21:11:34.439Z,20.25
2023-01-17T21:14:01.754Z,19.88
2023-01-17T21:16:28.751Z,22.40
2023-01-17T21:18:56.531Z,22.58
2023-01-17T21:21:25.579Z,21.30
2023-01-17T21:23:54.576Z,18.65
2023-01-17T21:26:22.681Z,22.30
2023-01-17T21:28:50.153Z,19.38
2023-01-17T21:31:25.284Z,13.00
2023-01-17T21:33:53.571Z,21.38
2023-01-17T21:36:21.798Z,21.65
2023-01-17T21:38:52.221Z,22.35
2023-01-17T21:41:20.974Z,20.85
2023-01-17T21:43:48.394Z,26.90
2023-01-17T21:46:15.211Z,21.25
2023-01-17T21:48:41.900Z,17.45
2023-01-17T21:51:09.358Z,17.55
2023-01-17T21:53:38.152Z,25.15
2023-01-17T21:56:26.010Z,18.35
2023-01-17T21:58:58.038Z,18.60
2023-01-17T22:01:27.579Z,21.98
2023-01-17T22:04:00.142Z,18.00
2023-01-17T22:06:32.133Z,21.27
2023-01-17T22:08:59.171Z,24.48
2023-01-17T22:11:27.638Z,19.60
2023-01-17T22:13:54.372Z,21.92
2023-01-17T22:16:24.016Z,18.25
2023-01-17T22:18:51.476Z,23.30
2023-01-17T22:21:26.217Z,24.42
2023-01-17T22:23:57.807Z,19.65
2023-01-17T22:26:27.896Z,21.63
2023-01-17T22:28:54.989Z,18.40
2023-01-17T22:31:27.397Z,21.88
2023-01-17T22:34:02.377Z,20.33
2023-01-17T22:36:33.514Z,20.08
2023-01-17T22:39:00.500Z,20.10
2023-01-17T22:41:33.775Z,22.08
2023-01-17T22:44:06.336Z,20.98
2023-01-17T22:46:35.845Z,20.25
2023-01-17T22:49:03.077Z,16.77
2023-01-17T22:51:31.409Z,17.83
2023-01-17T22:53:59.967Z,18.73
2023-01-17T22:56:31.848Z,17.30
2023-01-17T22:59:00.887Z,17.83
2023-01-17T23:01:29.760Z,18.00
2023-01-17T23:04:07.917Z,24.05
2023-01-17T23:06:40.572Z,18.20
2023-01-17T23:09:11.443Z,19.80
2023-01-17T23:11:42.468Z,24.52
2023-01-17T23:14:27.351Z,21.20
2023-01-17T23:17:13.565Z,16.88
2023-01-17T23:19:44.060Z,20.77
2023-01-17T23:22:19.046Z,16.75
2023-01-17T23:24:47.431Z,18.17
2023-01-17T23:27:35.915Z,18.52
2023-01-17T23:30:05.610Z,19.63
2023-01-17T23:32:32.223Z,21.45
2023-01-17T23:34:58.866Z,19.70
2023-01-17T23:37:48.437Z,18.05
2023-01-17T23:40:15.557Z,15.82
2023-01-17T23:43:02.405Z,17.50
2023-01-17T23:45:29.040Z,16.90
2023-01-17T23:47:55.677Z,12.18
2023-01-17T23:50:22.667Z,14.73
2023-01-17T23:52:49.244Z,14.50
2023-01-17T23:55:15.912Z,17.25
2023-01-17T23:57:42.605Z,16.30
